sensor_id;sensor_type;location;lat;lon;timestamp;temperature;humidity
14095;DHT22;18096;48.142;16.290;2022-09-09T00:02:14;16.10;89.70
14095;DHT22;18096;48.142;16.290;2022-09-09T00:04:51;16.10;89.30
14095;DHT22;18096;48.142;16.290;2022-09-09T00:07:33;16.10;89.30
14095;DHT22;18096;48.142;16.290;2022-09-09T00:10:29;16.10;89.40
14095;DHT22;18096;48.142;16.290;2022-09-09T00:13:08;16.10;89.50
14095;DHT22;18096;48.142;16.290;2022-09-09T00:15:52;16.00;89.90
14095;DHT22;18096;48.142;16.290;2022-09-09T00:18:56;16.00;90.00
14095;DHT22;18096;48.142;16.290;2022-09-09T00:21:33;16.00;90.00
14095;DHT22;18096;48.142;16.290;2022-09-09T00:24:08;15.90;90.00
14095;DHT22;18096;48.142;16.290;2022-09-09T00:26:45;16.00;89.80
14095;DHT22;18096;48.142;16.290;2022-09-09T00:31:38;15.90;89.60
14095;DHT22;18096;48.142;16.290;2022-09-09T00:34:14;15.90;89.80
14095;DHT22;18096;48.142;16.290;2022-09-09T00:36:53;15.90;90.00
14095;DHT22;18096;48.142;16.290;2022-09-09T00:39:38;15.90;90.00
14095;DHT22;18096;48.142;16.290;2022-09-09T00:45:19;15.80;90.20
14095;DHT22;18096;48.142;16.290;2022-09-09T00:47:51;15.80;90.10
14095;DHT22;18096;48.142;16.290;2022-09-09T00:57:53;15.90;89.30
14095;DHT22;18096;48.142;16.290;2022-09-09T01:00:30;16.00;88.90
14095;DHT22;18096;48.142;16.290;2022-09-09T01:06:11;16.10;88.40
14095;DHT22;18096;48.142;16.290;2022-09-09T01:11:09;16.10;88.30
14095;DHT22;18096;48.142;16.290;2022-09-09T01:13:36;16.00;88.20
14095;DHT22;18096;48.142;16.290;2022-09-09T01:16:04;16.00;88.20
14095;DHT22;18096;48.142;16.290;2022-09-09T01:18:39;16.00;88.10
14095;DHT22;18096;48.142;16.290;2022-09-09T01:26:56;15.90;88.70
14095;DHT22;18096;48.142;16.290;2022-09-09T01:29:25;15.90;88.50
14095;DHT22;18096;48.142;16.290;2022-09-09T01:31:55;15.90;88.30
14095;DHT22;18096;48.142;16.290;2022-09-09T01:34:24;16.00;88.10
14095;DHT22;18096;48.142;16.290;2022-09-09T01:37:10;16.00;87.80
14095;DHT22;18096;48.142;16.290;2022-09-09T01:39:40;16.00;87.70
14095;DHT22;18096;48.142;16.290;2022-09-09T01:42:11;16.00;87.70
14095;DHT22;18096;48.142;16.290;2022-09-09T01:44:41;16.00;87.50
14095;DHT22;18096;48.142;16.290;2022-09-09T01:47:07;16.00;87.40
14095;DHT22;18096;48.142;16.290;2022-09-09T01:49:32;16.00;87.10
14095;DHT22;18096;48.142;16.290;2022-09-09T01:51:59;16.00;86.80
14095;DHT22;18096;48.142;16.290;2022-09-09T01:54:28;16.10;86.80
14095;DHT22;18096;48.142;16.290;2022-09-09T02:02:08;16.00;86.70
14095;DHT22;18096;48.142;16.290;2022-09-09T02:04:43;16.00;86.90
14095;DHT22;18096;48.142;16.290;2022-09-09T02:10:14;15.90;86.80
14095;DHT22;18096;48.142;16.290;2022-09-09T02:12:49;15.90;87.40
14095;DHT22;18096;48.142;16.290;2022-09-09T02:15:28;15.80;87.70
14095;DHT22;18096;48.142;16.290;2022-09-09T02:17:57;15.80;88.10
14095;DHT22;18096;48.142;16.290;2022-09-09T02:20:25;15.70;88.20
14095;DHT22;18096;48.142;16.290;2022-09-09T02:22:53;15.70;88.20
14095;DHT22;18096;48.142;16.290;2022-09-09T02:25:22;15.60;88.60
14095;DHT22;18096;48.142;16.290;2022-09-09T02:27:50;15.60;88.80
14095;DHT22;18096;48.142;16.290;2022-09-09T02:30:19;15.60;88.80
14095;DHT22;18096;48.142;16.290;2022-09-09T02:32:48;15.60;89.60
14095;DHT22;18096;48.142;16.290;2022-09-09T02:35:19;15.50;89.00
14095;DHT22;18096;48.142;16.290;2022-09-09T02:37:49;15.50;89.00
14095;DHT22;18096;48.142;16.290;2022-09-09T02:40:16;15.50;89.10
14095;DHT22;18096;48.142;16.290;2022-09-09T02:42:44;15.50;89.30
14095;DHT22;18096;48.142;16.290;2022-09-09T02:45:13;15.40;89.50
14095;DHT22;18096;48.142;16.290;2022-09-09T02:47:50;15.30;89.30
14095;DHT22;18096;48.142;16.290;2022-09-09T02:50:25;15.30;89.60
14095;DHT22;18096;48.142;16.290;2022-09-09T02:58:07;15.20;89.90
14095;DHT22;18096;48.142;16.290;2022-09-09T03:00:33;15.20;90.00
14095;DHT22;18096;48.142;16.290;2022-09-09T03:03:03;15.20;90.00
14095;DHT22;18096;48.142;16.290;2022-09-09T03:05:29;15.20;90.00
14095;DHT22;18096;48.142;16.290;2022-09-09T03:07:55;15.20;90.00
14095;DHT22;18096;48.142;16.290;2022-09-09T03:10:23;15.20;90.00
14095;DHT22;18096;48.142;16.290;2022-09-09T03:12:52;15.10;89.90
14095;DHT22;18096;48.142;16.290;2022-09-09T03:15:17;15.10;90.00
14095;DHT22;18096;48.142;16.290;2022-09-09T03:17:43;15.10;90.00
14095;DHT22;18096;48.142;16.290;2022-09-09T03:20:09;15.10;90.10
14095;DHT22;18096;48.142;16.290;2022-09-09T03:22:35;15.10;90.20
14095;DHT22;18096;48.142;16.290;2022-09-09T03:25:04;15.10;90.20
14095;DHT22;18096;48.142;16.290;2022-09-09T03:27:32;15.10;90.20
14095;DHT22;18096;48.142;16.290;2022-09-09T03:29:58;15.10;90.30
14095;DHT22;18096;48.142;16.290;2022-09-09T03:32:24;15.10;90.30
14095;DHT22;18096;48.142;16.290;2022-09-09T03:34:52;15.10;90.30
14095;DHT22;18096;48.142;16.290;2022-09-09T03:37:18;15.10;90.40
14095;DHT22;18096;48.142;16.290;2022-09-09T03:39:44;15.10;90.40
14095;DHT22;18096;48.142;16.290;2022-09-09T03:42:14;15.10;90.30
14095;DHT22;18096;48.142;16.290;2022-09-09T03:44:41;15.10;90.20
14095;DHT22;18096;48.142;16.290;2022-09-09T03:47:09;15.10;90.20
14095;DHT22;18096;48.142;16.290;2022-09-09T03:49:35;15.10;90.10
14095;DHT22;18096;48.142;16.290;2022-09-09T03:52:00;15.10;90.10
14095;DHT22;18096;48.142;16.290;2022-09-09T03:54:27;15.10;90.30
14095;DHT22;18096;48.142;16.290;2022-09-09T03:56:55;15.10;90.40
14095;DHT22;18096;48.142;16.290;2022-09-09T03:59:21;15.10;90.50
14095;DHT22;18096;48.142;16.290;2022-09-09T04:01:48;15.00;90.50
14095;DHT22;18096;48.142;16.290;2022-09-09T04:04:14;15.00;90.50
14095;DHT22;18096;48.142;16.290;2022-09-09T04:06:42;14.90;90.50
14095;DHT22;18096;48.142;16.290;2022-09-09T04:09:08;15.00;90.50
14095;DHT22;18096;48.142;16.290;2022-09-09T04:11:37;14.90;90.50
14095;DHT22;18096;48.142;16.290;2022-09-09T04:14:03;14.90;90.50
14095;DHT22;18096;48.142;16.290;2022-09-09T04:16:32;14.90;90.50
14095;DHT22;18096;48.142;16.290;2022-09-09T04:18:58;14.90;90.50
14095;DHT22;18096;48.142;16.290;2022-09-09T04:21:25;14.90;90.50
14095;DHT22;18096;48.142;16.290;2022-09-09T04:23:51;14.90;90.50
14095;DHT22;18096;48.142;16.290;2022-09-09T04:26:17;14.80;90.60
14095;DHT22;18096;48.142;16.290;2022-09-09T04:28:42;14.80;90.70
14095;DHT22;18096;48.142;16.290;2022-09-09T04:31:18;14.80;90.70
14095;DHT22;18096;48.142;16.290;2022-09-09T04:33:45;14.80;90.70
14095;DHT22;18096;48.142;16.290;2022-09-09T04:36:15;14.70;90.60
14095;DHT22;18096;48.142;16.290;2022-09-09T04:38:41;14.60;90.70
14095;DHT22;18096;48.142;16.290;2022-09-09T04:41:08;14.60;90.80
14095;DHT22;18096;48.142;16.290;2022-09-09T04:43:37;14.60;90.80
14095;DHT22;18096;48.142;16.290;2022-09-09T04:46:06;14.60;90.90
14095;DHT22;18096;48.142;16.290;2022-09-09T04:48:32;14.60;90.70
14095;DHT22;18096;48.142;16.290;2022-09-09T04:51:00;14.50;90.60
14095;DHT22;18096;48.142;16.290;2022-09-09T04:53:27;14.60;90.60
14095;DHT22;18096;48.142;16.290;2022-09-09T04:56:16;14.60;90.70
14095;DHT22;18096;48.142;16.290;2022-09-09T04:58:45;14.60;90.70
14095;DHT22;18096;48.142;16.290;2022-09-09T05:01:20;14.50;90.60
14095;DHT22;18096;48.142;16.290;2022-09-09T05:03:47;14.50;90.70
14095;DHT22;18096;48.142;16.290;2022-09-09T05:06:17;14.40;90.70
14095;DHT22;18096;48.142;16.290;2022-09-09T05:08:44;14.40;90.80
14095;DHT22;18096;48.142;16.290;2022-09-09T05:11:37;14.40;90.90
14095;DHT22;18096;48.142;16.290;2022-09-09T05:14:04;14.40;90.90
14095;DHT22;18096;48.142;16.290;2022-09-09T05:16:30;14.40;90.90
14095;DHT22;18096;48.142;16.290;2022-09-09T05:18:56;14.40;91.00
14095;DHT22;18096;48.142;16.290;2022-09-09T05:21:24;14.40;91.00
14095;DHT22;18096;48.142;16.290;2022-09-09T05:23:51;14.40;90.90
14095;DHT22;18096;48.142;16.290;2022-09-09T05:26:18;14.50;91.00
14095;DHT22;18096;48.142;16.290;2022-09-09T05:28:45;14.50;91.00
14095;DHT22;18096;48.142;16.290;2022-09-09T05:31:13;14.50;91.00
14095;DHT22;18096;48.142;16.290;2022-09-09T05:33:40;14.60;91.10
14095;DHT22;18096;48.142;16.290;2022-09-09T05:36:08;14.60;91.20
14095;DHT22;18096;48.142;16.290;2022-09-09T05:38:36;14.70;91.00
14095;DHT22;18096;48.142;16.290;2022-09-09T05:41:03;14.70;90.90
14095;DHT22;18096;48.142;16.290;2022-09-09T05:43:29;14.80;90.90
14095;DHT22;18096;48.142;16.290;2022-09-09T05:46:05;14.80;90.90
14095;DHT22;18096;48.142;16.290;2022-09-09T05:48:32;14.80;90.80
14095;DHT22;18096;48.142;16.290;2022-09-09T05:50:59;14.90;90.80
14095;DHT22;18096;48.142;16.290;2022-09-09T05:53:26;14.90;90.80
14095;DHT22;18096;48.142;16.290;2022-09-09T05:56:04;15.00;90.80
14095;DHT22;18096;48.142;16.290;2022-09-09T05:58:31;15.00;91.00
14095;DHT22;18096;48.142;16.290;2022-09-09T06:03:48;15.10;90.90
14095;DHT22;18096;48.142;16.290;2022-09-09T06:06:20;15.10;90.80
14095;DHT22;18096;48.142;16.290;2022-09-09T06:08:46;15.20;90.90
14095;DHT22;18096;48.142;16.290;2022-09-09T06:11:15;15.20;91.00
14095;DHT22;18096;48.142;16.290;2022-09-09T06:13:42;15.20;91.00
14095;DHT22;18096;48.142;16.290;2022-09-09T06:16:13;15.30;90.90
14095;DHT22;18096;48.142;16.290;2022-09-09T06:18:41;15.40;90.90
14095;DHT22;18096;48.142;16.290;2022-09-09T06:21:19;15.50;91.00
14095;DHT22;18096;48.142;16.290;2022-09-09T06:23:45;15.60;90.70
14095;DHT22;18096;48.142;16.290;2022-09-09T06:26:15;15.60;90.50
14095;DHT22;18096;48.142;16.290;2022-09-09T06:28:43;15.70;90.40
14095;DHT22;18096;48.142;16.290;2022-09-09T06:31:13;15.80;90.30
14095;DHT22;18096;48.142;16.290;2022-09-09T06:33:41;15.90;90.30
14095;DHT22;18096;48.142;16.290;2022-09-09T06:36:17;16.00;90.20
14095;DHT22;18096;48.142;16.290;2022-09-09T06:38:44;16.10;90.30
14095;DHT22;18096;48.142;16.290;2022-09-09T06:41:11;16.20;90.20
14095;DHT22;18096;48.142;16.290;2022-09-09T06:43:37;16.20;90.00
14095;DHT22;18096;48.142;16.290;2022-09-09T06:46:09;16.30;89.90
14095;DHT22;18096;48.142;16.290;2022-09-09T06:48:36;16.40;89.60
14095;DHT22;18096;48.142;16.290;2022-09-09T06:51:06;16.50;89.50
14095;DHT22;18096;48.142;16.290;2022-09-09T06:53:33;16.50;89.40
14095;DHT22;18096;48.142;16.290;2022-09-09T06:56:01;16.60;89.20
14095;DHT22;18096;48.142;16.290;2022-09-09T06:58:28;16.60;89.10
14095;DHT22;18096;48.142;16.290;2022-09-09T07:01:02;16.70;89.10
14095;DHT22;18096;48.142;16.290;2022-09-09T07:03:30;16.80;89.30
14095;DHT22;18096;48.142;16.290;2022-09-09T07:05:58;16.80;89.10
14095;DHT22;18096;48.142;16.290;2022-09-09T07:08:24;16.90;88.90
14095;DHT22;18096;48.142;16.290;2022-09-09T07:10:51;16.90;88.30
14095;DHT22;18096;48.142;16.290;2022-09-09T07:13:24;17.00;88.40
14095;DHT22;18096;48.142;16.290;2022-09-09T07:15:51;17.00;88.30
14095;DHT22;18096;48.142;16.290;2022-09-09T07:18:18;17.10;88.40
14095;DHT22;18096;48.142;16.290;2022-09-09T07:20:55;17.10;88.20
14095;DHT22;18096;48.142;16.290;2022-09-09T07:23:24;17.10;87.80
14095;DHT22;18096;48.142;16.290;2022-09-09T07:25:50;17.10;87.60
14095;DHT22;18096;48.142;16.290;2022-09-09T07:28:17;17.10;87.50
14095;DHT22;18096;48.142;16.290;2022-09-09T07:30:43;17.10;87.50
14095;DHT22;18096;48.142;16.290;2022-09-09T07:33:10;17.20;87.70
14095;DHT22;18096;48.142;16.290;2022-09-09T07:35:36;17.20;87.70
14095;DHT22;18096;48.142;16.290;2022-09-09T07:38:02;17.20;87.70
14095;DHT22;18096;48.142;16.290;2022-09-09T07:40:30;17.20;87.80
14095;DHT22;18096;48.142;16.290;2022-09-09T07:42:56;17.30;87.60
14095;DHT22;18096;48.142;16.290;2022-09-09T07:45:22;17.30;87.50
14095;DHT22;18096;48.142;16.290;2022-09-09T07:47:47;17.30;87.40
14095;DHT22;18096;48.142;16.290;2022-09-09T07:50:14;17.30;87.30
14095;DHT22;18096;48.142;16.290;2022-09-09T07:52:42;17.40;87.30
14095;DHT22;18096;48.142;16.290;2022-09-09T07:55:08;17.50;87.40
14095;DHT22;18096;48.142;16.290;2022-09-09T07:57:34;17.50;86.90
14095;DHT22;18096;48.142;16.290;2022-09-09T08:00:00;17.60;86.70
14095;DHT22;18096;48.142;16.290;2022-09-09T08:02:25;17.60;86.60
14095;DHT22;18096;48.142;16.290;2022-09-09T08:04:53;17.70;86.70
14095;DHT22;18096;48.142;16.290;2022-09-09T08:07:19;17.80;86.80
14095;DHT22;18096;48.142;16.290;2022-09-09T08:09:46;17.80;86.60
14095;DHT22;18096;48.142;16.290;2022-09-09T08:12:12;17.90;86.60
14095;DHT22;18096;48.142;16.290;2022-09-09T08:14:38;18.00;86.10
14095;DHT22;18096;48.142;16.290;2022-09-09T08:17:11;18.00;85.90
14095;DHT22;18096;48.142;16.290;2022-09-09T08:19:37;18.10;85.30
14095;DHT22;18096;48.142;16.290;2022-09-09T08:22:09;18.20;84.10
14095;DHT22;18096;48.142;16.290;2022-09-09T08:24:34;18.30;83.80
14095;DHT22;18096;48.142;16.290;2022-09-09T08:27:01;18.40;83.80
14095;DHT22;18096;48.142;16.290;2022-09-09T08:29:28;18.40;83.50
14095;DHT22;18096;48.142;16.290;2022-09-09T08:31:57;18.50;82.60
14095;DHT22;18096;48.142;16.290;2022-09-09T08:34:25;18.60;82.90
14095;DHT22;18096;48.142;16.290;2022-09-09T08:36:53;18.60;83.00
14095;DHT22;18096;48.142;16.290;2022-09-09T08:39:20;18.60;82.30
14095;DHT22;18096;48.142;16.290;2022-09-09T08:48:22;18.80;82.30
14095;DHT22;18096;48.142;16.290;2022-09-09T08:50:53;18.80;81.60
14095;DHT22;18096;48.142;16.290;2022-09-09T08:53:23;18.80;81.30
14095;DHT22;18096;48.142;16.290;2022-09-09T08:55:54;18.90;81.30
14095;DHT22;18096;48.142;16.290;2022-09-09T08:58:28;19.00;81.30
14095;DHT22;18096;48.142;16.290;2022-09-09T09:01:24;19.00;80.80
14095;DHT22;18096;48.142;16.290;2022-09-09T09:04:21;19.10;80.60
14095;DHT22;18096;48.142;16.290;2022-09-09T09:10:02;19.10;80.10
14095;DHT22;18096;48.142;16.290;2022-09-09T09:12:41;19.30;80.20
14095;DHT22;18096;48.142;16.290;2022-09-09T09:15:18;19.30;79.50
14095;DHT22;18096;48.142;16.290;2022-09-09T09:17:45;19.40;78.50
14095;DHT22;18096;48.142;16.290;2022-09-09T09:20:20;19.40;78.80
14095;DHT22;18096;48.142;16.290;2022-09-09T09:22:52;19.50;79.30
14095;DHT22;18096;48.142;16.290;2022-09-09T09:25:22;19.50;79.40
14095;DHT22;18096;48.142;16.290;2022-09-09T09:27:57;19.60;80.00
14095;DHT22;18096;48.142;16.290;2022-09-09T09:30:35;19.70;80.30
14095;DHT22;18096;48.142;16.290;2022-09-09T09:33:22;19.70;78.10
14095;DHT22;18096;48.142;16.290;2022-09-09T09:35:50;19.80;77.00
14095;DHT22;18096;48.142;16.290;2022-09-09T09:38:21;19.90;75.40
14095;DHT22;18096;48.142;16.290;2022-09-09T09:40:54;19.90;74.90
14095;DHT22;18096;48.142;16.290;2022-09-09T09:43:34;19.90;74.90
14095;DHT22;18096;48.142;16.290;2022-09-09T09:46:04;19.90;76.00
14095;DHT22;18096;48.142;16.290;2022-09-09T09:48:30;20.00;77.40
14095;DHT22;18096;48.142;16.290;2022-09-09T09:51:17;20.10;77.50
14095;DHT22;18096;48.142;16.290;2022-09-09T09:53:48;20.10;77.40
14095;DHT22;18096;48.142;16.290;2022-09-09T09:56:15;20.20;78.20
14095;DHT22;18096;48.142;16.290;2022-09-09T10:01:31;20.20;77.80
14095;DHT22;18096;48.142;16.290;2022-09-09T10:04:19;20.30;77.50
14095;DHT22;18096;48.142;16.290;2022-09-09T10:06:50;20.40;77.60
14095;DHT22;18096;48.142;16.290;2022-09-09T10:09:29;20.40;77.60
14095;DHT22;18096;48.142;16.290;2022-09-09T10:15:29;20.60;76.20
14095;DHT22;18096;48.142;16.290;2022-09-09T10:27:14;20.90;76.00
14095;DHT22;18096;48.142;16.290;2022-09-09T10:33:04;20.90;76.90
14095;DHT22;18096;48.142;16.290;2022-09-09T10:38:17;20.90;74.80
14095;DHT22;18096;48.142;16.290;2022-09-09T10:55:00;21.30;76.10
14095;DHT22;18096;48.142;16.290;2022-09-09T10:57:47;21.30;76.00
14095;DHT22;18096;48.142;16.290;2022-09-09T11:00:20;21.40;75.70
14095;DHT22;18096;48.142;16.290;2022-09-09T11:02:58;21.40;75.60
14095;DHT22;18096;48.142;16.290;2022-09-09T11:05:49;21.40;73.60
14095;DHT22;18096;48.142;16.290;2022-09-09T11:08:20;21.50;73.30
14095;DHT22;18096;48.142;16.290;2022-09-09T11:11:14;21.50;74.20
14095;DHT22;18096;48.142;16.290;2022-09-09T11:14:05;21.50;74.60
14095;DHT22;18096;48.142;16.290;2022-09-09T11:17:00;21.40;73.60
14095;DHT22;18096;48.142;16.290;2022-09-09T11:19:41;21.40;73.70
14095;DHT22;18096;48.142;16.290;2022-09-09T11:22:18;21.40;70.80
14095;DHT22;18096;48.142;16.290;2022-09-09T11:45:23;21.70;71.80
14095;DHT22;18096;48.142;16.290;2022-09-09T11:48:20;21.80;71.60
14095;DHT22;18096;48.142;16.290;2022-09-09T11:54:48;21.90;69.30
14095;DHT22;18096;48.142;16.290;2022-09-09T11:57:38;21.90;69.90
14095;DHT22;18096;48.142;16.290;2022-09-09T12:11:01;22.00;70.50
14095;DHT22;18096;48.142;16.290;2022-09-09T12:14:19;22.10;70.00
14095;DHT22;18096;48.142;16.290;2022-09-09T12:20:26;22.20;69.00
14095;DHT22;18096;48.142;16.290;2022-09-09T12:29:25;22.30;66.90
14095;DHT22;18096;48.142;16.290;2022-09-09T12:37:37;22.20;68.00
14095;DHT22;18096;48.142;16.290;2022-09-09T12:40:05;22.20;66.50
14095;DHT22;18096;48.142;16.290;2022-09-09T12:42:33;22.20;65.50
14095;DHT22;18096;48.142;16.290;2022-09-09T12:45:22;22.20;65.90
14095;DHT22;18096;48.142;16.290;2022-09-09T12:48:08;22.30;66.30
14095;DHT22;18096;48.142;16.290;2022-09-09T12:50:54;22.30;66.80
14095;DHT22;18096;48.142;16.290;2022-09-09T12:53:35;22.30;66.40
14095;DHT22;18096;48.142;16.290;2022-09-09T12:56:05;22.30;66.70
14095;DHT22;18096;48.142;16.290;2022-09-09T12:58:33;22.20;66.50
14095;DHT22;18096;48.142;16.290;2022-09-09T13:01:01;22.30;66.40
14095;DHT22;18096;48.142;16.290;2022-09-09T13:03:31;22.20;66.20
14095;DHT22;18096;48.142;16.290;2022-09-09T13:06:25;22.30;65.90
14095;DHT22;18096;48.142;16.290;2022-09-09T13:09:13;22.20;65.70
14095;DHT22;18096;48.142;16.290;2022-09-09T13:11:54;22.20;65.80
14095;DHT22;18096;48.142;16.290;2022-09-09T13:14:31;22.20;66.00
14095;DHT22;18096;48.142;16.290;2022-09-09T13:17:04;22.20;65.70
14095;DHT22;18096;48.142;16.290;2022-09-09T13:19:40;22.20;65.80
14095;DHT22;18096;48.142;16.290;2022-09-09T13:22:21;22.20;66.20
14095;DHT22;18096;48.142;16.290;2022-09-09T13:25:04;22.20;65.80
14095;DHT22;18096;48.142;16.290;2022-09-09T13:27:38;22.20;65.60
14095;DHT22;18096;48.142;16.290;2022-09-09T13:30:33;22.10;65.80
14095;DHT22;18096;48.142;16.290;2022-09-09T13:35:35;22.10;65.60
14095;DHT22;18096;48.142;16.290;2022-09-09T13:38:14;22.10;66.00
14095;DHT22;18096;48.142;16.290;2022-09-09T13:41:04;22.10;65.90
14095;DHT22;18096;48.142;16.290;2022-09-09T13:43:37;22.10;65.90
14095;DHT22;18096;48.142;16.290;2022-09-09T13:46:21;22.00;65.60
14095;DHT22;18096;48.142;16.290;2022-09-09T13:48:57;22.00;65.90
14095;DHT22;18096;48.142;16.290;2022-09-09T13:51:35;22.00;66.50
14095;DHT22;18096;48.142;16.290;2022-09-09T13:54:13;21.90;65.90
14095;DHT22;18096;48.142;16.290;2022-09-09T13:56:47;21.90;66.00
14095;DHT22;18096;48.142;16.290;2022-09-09T13:59:25;21.90;66.00
14095;DHT22;18096;48.142;16.290;2022-09-09T14:02:14;21.90;66.30
14095;DHT22;18096;48.142;16.290;2022-09-09T14:05:00;21.90;66.30
14095;DHT22;18096;48.142;16.290;2022-09-09T14:07:40;21.90;66.50
14095;DHT22;18096;48.142;16.290;2022-09-09T14:10:27;21.80;66.60
14095;DHT22;18096;48.142;16.290;2022-09-09T14:12:55;21.80;67.10
14095;DHT22;18096;48.142;16.290;2022-09-09T14:15:33;21.80;69.60
14095;DHT22;18096;48.142;16.290;2022-09-09T14:27:23;21.30;73.80
14095;DHT22;18096;48.142;16.290;2022-09-09T14:33:17;21.10;74.90
14095;DHT22;18096;48.142;16.290;2022-09-09T14:36:11;21.00;75.10
14095;DHT22;18096;48.142;16.290;2022-09-09T14:38:46;20.90;75.70
14095;DHT22;18096;48.142;16.290;2022-09-09T14:41:17;20.80;75.90
14095;DHT22;18096;48.142;16.290;2022-09-09T14:43:44;20.80;76.20
14095;DHT22;18096;48.142;16.290;2022-09-09T14:46:15;20.70;76.20
14095;DHT22;18096;48.142;16.290;2022-09-09T14:48:41;20.70;76.20
14095;DHT22;18096;48.142;16.290;2022-09-09T14:51:09;20.60;76.50
14095;DHT22;18096;48.142;16.290;2022-09-09T14:53:37;20.60;76.90
14095;DHT22;18096;48.142;16.290;2022-09-09T14:56:07;20.50;77.20
14095;DHT22;18096;48.142;16.290;2022-09-09T14:58:33;20.40;77.50
14095;DHT22;18096;48.142;16.290;2022-09-09T15:01:04;20.40;77.60
14095;DHT22;18096;48.142;16.290;2022-09-09T15:03:30;20.40;77.70
14095;DHT22;18096;48.142;16.290;2022-09-09T15:05:56;20.30;77.50
14095;DHT22;18096;48.142;16.290;2022-09-09T15:08:24;20.30;77.30
14095;DHT22;18096;48.142;16.290;2022-09-09T15:10:50;20.20;76.70
14095;DHT22;18096;48.142;16.290;2022-09-09T15:13:16;20.20;76.70
14095;DHT22;18096;48.142;16.290;2022-09-09T15:15:44;20.20;76.80
14095;DHT22;18096;48.142;16.290;2022-09-09T15:18:10;20.10;76.70
14095;DHT22;18096;48.142;16.290;2022-09-09T15:20:35;20.10;76.50
14095;DHT22;18096;48.142;16.290;2022-09-09T15:23:02;20.10;76.50
14095;DHT22;18096;48.142;16.290;2022-09-09T15:25:33;20.10;76.80
14095;DHT22;18096;48.142;16.290;2022-09-09T15:27:58;20.00;77.10
14095;DHT22;18096;48.142;16.290;2022-09-09T15:30:29;20.00;77.20
14095;DHT22;18096;48.142;16.290;2022-09-09T15:33:18;19.90;77.30
14095;DHT22;18096;48.142;16.290;2022-09-09T15:36:00;19.90;77.70
14095;DHT22;18096;48.142;16.290;2022-09-09T15:38:35;19.90;77.70
14095;DHT22;18096;48.142;16.290;2022-09-09T15:41:10;19.80;76.80
14095;DHT22;18096;48.142;16.290;2022-09-09T15:43:38;19.70;76.30
14095;DHT22;18096;48.142;16.290;2022-09-09T15:46:35;19.70;76.20
14095;DHT22;18096;48.142;16.290;2022-09-09T15:49:15;19.60;76.10
14095;DHT22;18096;48.142;16.290;2022-09-09T15:52:01;19.60;76.80
14095;DHT22;18096;48.142;16.290;2022-09-09T15:54:34;19.60;77.30
14095;DHT22;18096;48.142;16.290;2022-09-09T15:57:11;19.60;77.80
14095;DHT22;18096;48.142;16.290;2022-09-09T15:59:49;19.50;78.10
14095;DHT22;18096;48.142;16.290;2022-09-09T16:02:16;19.50;78.10
14095;DHT22;18096;48.142;16.290;2022-09-09T16:04:42;19.50;78.20
14095;DHT22;18096;48.142;16.290;2022-09-09T16:07:08;19.50;78.20
14095;DHT22;18096;48.142;16.290;2022-09-09T16:09:35;19.40;78.00
14095;DHT22;18096;48.142;16.290;2022-09-09T16:12:02;19.40;78.10
14095;DHT22;18096;48.142;16.290;2022-09-09T16:14:29;19.40;78.30
14095;DHT22;18096;48.142;16.290;2022-09-09T16:17:29;19.40;78.50
14095;DHT22;18096;48.142;16.290;2022-09-09T16:23:46;19.40;79.20
14095;DHT22;18096;48.142;16.290;2022-09-09T16:37:16;19.30;80.90
14095;DHT22;18096;48.142;16.290;2022-09-09T16:39:43;19.20;81.10
14095;DHT22;18096;48.142;16.290;2022-09-09T16:42:11;19.20;81.20
14095;DHT22;18096;48.142;16.290;2022-09-09T16:44:36;19.10;81.30
14095;DHT22;18096;48.142;16.290;2022-09-09T16:47:02;19.10;81.40
14095;DHT22;18096;48.142;16.290;2022-09-09T16:49:28;19.10;81.50
14095;DHT22;18096;48.142;16.290;2022-09-09T16:51:57;19.00;81.60
14095;DHT22;18096;48.142;16.290;2022-09-09T16:54:23;19.10;81.70
14095;DHT22;18096;48.142;16.290;2022-09-09T16:56:50;19.10;81.90
14095;DHT22;18096;48.142;16.290;2022-09-09T16:59:20;19.10;82.10
14095;DHT22;18096;48.142;16.290;2022-09-09T17:01:48;19.10;82.40
14095;DHT22;18096;48.142;16.290;2022-09-09T17:04:16;19.00;82.60
14095;DHT22;18096;48.142;16.290;2022-09-09T17:13:08;18.90;84.30
14095;DHT22;18096;48.142;16.290;2022-09-09T17:22:47;18.70;85.50
14095;DHT22;18096;48.142;16.290;2022-09-09T17:25:59;18.70;86.00
14095;DHT22;18096;48.142;16.290;2022-09-09T17:28:46;18.60;86.60
14095;DHT22;18096;48.142;16.290;2022-09-09T17:31:35;18.50;87.50
14095;DHT22;18096;48.142;16.290;2022-09-09T17:37:45;18.40;88.80
14095;DHT22;18096;48.142;16.290;2022-09-09T17:40:28;18.30;89.10
14095;DHT22;18096;48.142;16.290;2022-09-09T17:43:02;18.20;89.40
14095;DHT22;18096;48.142;16.290;2022-09-09T17:46:09;18.10;89.90
14095;DHT22;18096;48.142;16.290;2022-09-09T17:48:36;18.00;90.20
14095;DHT22;18096;48.142;16.290;2022-09-09T17:51:23;17.90;90.30
14095;DHT22;18096;48.142;16.290;2022-09-09T17:53:58;17.80;90.50
14095;DHT22;18096;48.142;16.290;2022-09-09T17:56:31;17.70;90.80
14095;DHT22;18096;48.142;16.290;2022-09-09T17:58:59;17.60;90.90
14095;DHT22;18096;48.142;16.290;2022-09-09T18:01:27;17.60;91.00
14095;DHT22;18096;48.142;16.290;2022-09-09T18:04:00;17.50;91.30
14095;DHT22;18096;48.142;16.290;2022-09-09T18:06:53;17.50;91.50
14095;DHT22;18096;48.142;16.290;2022-09-09T18:09:25;17.50;91.70
14095;DHT22;18096;48.142;16.290;2022-09-09T18:11:53;17.50;92.10
14095;DHT22;18096;48.142;16.290;2022-09-09T18:14:30;17.50;91.70
14095;DHT22;18096;48.142;16.290;2022-09-09T18:16:58;17.40;91.60
14095;DHT22;18096;48.142;16.290;2022-09-09T18:19:30;17.40;91.70
14095;DHT22;18096;48.142;16.290;2022-09-09T18:22:16;17.40;91.90
14095;DHT22;18096;48.142;16.290;2022-09-09T18:24:45;17.40;91.90
14095;DHT22;18096;48.142;16.290;2022-09-09T18:27:14;17.30;91.90
14095;DHT22;18096;48.142;16.290;2022-09-09T18:29:45;17.30;91.90
14095;DHT22;18096;48.142;16.290;2022-09-09T18:32:36;17.30;92.10
14095;DHT22;18096;48.142;16.290;2022-09-09T18:35:47;17.20;92.10
14095;DHT22;18096;48.142;16.290;2022-09-09T18:38:28;17.10;92.30
14095;DHT22;18096;48.142;16.290;2022-09-09T18:41:41;17.20;92.50
14095;DHT22;18096;48.142;16.290;2022-09-09T18:44:17;17.20;92.70
14095;DHT22;18096;48.142;16.290;2022-09-09T18:46:52;17.20;92.40
14095;DHT22;18096;48.142;16.290;2022-09-09T18:49:19;17.10;92.50
14095;DHT22;18096;48.142;16.290;2022-09-09T18:51:46;17.10;92.40
14095;DHT22;18096;48.142;16.290;2022-09-09T18:54:16;17.20;92.30